This is the latest recevied weather packets stored in our database for station/object KA7EII-13. If no packets are shown the sender has not sent any weather packets the latest 10 day(s).
| Time | Temp. | Humidity | Pressure | Rain* | Wind** | Luminosity | Snow |
|---|---|---|---|---|---|---|---|
| 1777156386 | 11.67° C | 32% | 1097.5 hPa | 0 mm | - | 490 W/m² | - |
| 1777156082 | 11.11° C | 34% | 1097.6 hPa | 0 mm | - | 521 W/m² | - |
| 1777155778 | 10.56° C | 34% | 1097.7 hPa | 0 mm | - | 191 W/m² | - |
| 1777155474 | 10° C | 35% | 1098.1 hPa | 0 mm | - | 363 W/m² | - |
| 1777155171 | 10° C | 36% | 1097.8 hPa | 0 mm | - | 177 W/m² | - |
| 1777154868 | 10° C | 34% | 1098.1 hPa | 0 mm | - | 155 W/m² | - |
| 1777154565 | 10.56° C | 33% | 1098.4 hPa | 0 mm | - | 589 W/m² | - |
| 1777154260 | 12.22° C | 31% | 1098.4 hPa | 0 mm | - | 553 W/m² | - |
| 1777153957 | 12.22° C | 32% | 1098.4 hPa | 0 mm | - | 588 W/m² | - |
| 1777153653 | 12.22° C | 31% | 1098.4 hPa | 0 mm | - | 560 W/m² | - |
| 1777153349 | 11.67° C | 32% | 1098.3 hPa | 0 mm | - | 604 W/m² | - |
| 1777153045 | 11.67° C | 33% | 1098.4 hPa | 0 mm | - | 636 W/m² | - |
| 1777152742 | 12.22° C | 33% | 1098.3 hPa | 0 mm | - | 638 W/m² | - |
| 1777152439 | 11.11° C | 35% | 1098.5 hPa | 0 mm | - | 648 W/m² | - |
| 1777152136 | 11.11° C | 31% | 1098.5 hPa | 0 mm | - | 669 W/m² | - |
| 1777151830 | 10° C | 36% | 1098.8 hPa | 0 mm | - | 737 W/m² | - |
| 1777151527 | 10° C | 35% | 1098.8 hPa | 0 mm | - | 200 W/m² | - |
| 1777151223 | 10° C | 33% | 1098.6 hPa | 0 mm | - | 559 W/m² | - |
| 1777150918 | 9.44° C | 35% | 1099.1 hPa | 0 mm | - | 321 W/m² | - |
| 1777150613 | 10° C | 34% | 1099 hPa | 0 mm | - | 138 W/m² | - |
| 1777150308 | 10° C | 35% | 1099 hPa | 0 mm | - | 253 W/m² | - |
| 1777150006 | 10.56° C | 33% | 1099 hPa | 0 mm | - | 271 W/m² | - |
| 1777149702 | 11.11° C | 33% | 1099 hPa | 0 mm | - | 767 W/m² | - |
| 1777149399 | 10.56° C | 33% | 1099.2 hPa | 0 mm | - | 796 W/m² | - |
| 1777149095 | 10.56° C | 36% | 1099.3 hPa | 0 mm | - | 876 W/m² | - |
* Rain latest hour (hover to see other rain measurements)
** Current wind speed in m/s (hover to see current wind gust speed)